createdAt,value
2023-03-17T00:01:53.778Z,0.80
2023-03-17T00:05:05.173Z,1.25
2023-03-17T00:08:16.056Z,1.55
2023-03-17T00:11:24.128Z,1.00
2023-03-17T00:14:34.235Z,1.30
2023-03-17T00:17:46.930Z,1.70
2023-03-17T00:20:55.743Z,1.62
2023-03-17T00:24:05.741Z,1.00
2023-03-17T00:27:18.540Z,1.27
2023-03-17T00:30:30.805Z,1.27
2023-03-17T00:33:42.323Z,1.00
2023-03-17T00:36:52.547Z,1.50
2023-03-17T00:40:06.650Z,1.70
2023-03-17T00:43:17.497Z,1.25
2023-03-17T00:46:29.333Z,0.70
2023-03-17T00:49:41.708Z,1.37
2023-03-17T00:52:53.948Z,1.87
2023-03-17T00:56:07.099Z,0.98
2023-03-17T00:59:21.683Z,1.32
2023-03-17T01:02:36.208Z,1.25
2023-03-17T01:05:47.282Z,1.62
2023-03-17T01:08:57.135Z,1.37
2023-03-17T01:12:08.559Z,1.17
2023-03-17T01:15:21.107Z,1.50
2023-03-17T01:18:35.171Z,1.55
2023-03-17T01:21:48.084Z,1.62
2023-03-17T01:24:59.725Z,1.47
2023-03-17T01:28:11.876Z,1.35
2023-03-17T01:31:22.706Z,1.52
2023-03-17T01:34:30.254Z,1.40
2023-03-17T01:37:43.336Z,1.35
2023-03-17T01:40:56.147Z,1.05
2023-03-17T01:44:07.945Z,1.32
2023-03-17T01:47:24.027Z,1.22
2023-03-17T01:50:34.892Z,1.37
2023-03-17T01:53:43.608Z,1.35
2023-03-17T01:56:54.502Z,1.37
2023-03-17T02:00:08.575Z,1.55
2023-03-17T02:03:19.031Z,1.25
2023-03-17T02:06:32.800Z,1.95
2023-03-17T02:09:42.633Z,1.50
2023-03-17T02:12:53.767Z,1.35
2023-03-17T02:16:07.482Z,1.07
2023-03-17T02:19:15.586Z,1.37
2023-03-17T02:22:26.388Z,0.98
2023-03-17T02:25:39.719Z,1.32
2023-03-17T02:28:50.168Z,1.40
2023-03-17T02:32:01.066Z,1.70
2023-03-17T02:35:12.198Z,1.27
2023-03-17T02:38:24.348Z,1.02
2023-03-17T02:41:32.746Z,1.50
2023-03-17T02:44:41.828Z,1.00
2023-03-17T02:47:53.127Z,1.57
2023-03-17T02:51:04.584Z,1.57
2023-03-17T02:54:13.783Z,1.20
2023-03-17T02:57:26.336Z,1.37
2023-03-17T03:00:38.490Z,0.90
2023-03-17T03:03:50.023Z,1.15
2023-03-17T03:07:03.096Z,1.30
2023-03-17T03:10:21.045Z,1.75
2023-03-17T03:13:30.821Z,1.50
2023-03-17T03:16:39.837Z,1.22
2023-03-17T03:19:51.106Z,0.88
2023-03-17T03:23:00.775Z,0.65
2023-03-17T03:26:10.729Z,1.52
2023-03-17T03:29:22.205Z,0.93
2023-03-17T03:32:35.609Z,0.98
2023-03-17T03:38:51.645Z,1.25
2023-03-17T03:42:00.442Z,1.00
2023-03-17T03:45:15.329Z,1.55
2023-03-17T03:48:27.322Z,0.82
2023-03-17T03:51:37.292Z,0.93
2023-03-17T03:54:50.360Z,0.90
2023-03-17T03:58:00.224Z,0.85
2023-03-17T04:01:13.808Z,0.80
2023-03-17T04:04:25.462Z,1.30
2023-03-17T04:07:36.363Z,0.98
2023-03-17T04:10:47.101Z,1.10
2023-03-17T04:13:55.321Z,1.42
2023-03-17T04:17:06.040Z,1.32
2023-03-17T04:20:20.848Z,1.27
2023-03-17T04:23:33.904Z,1.70
2023-03-17T04:26:45.558Z,1.10
2023-03-17T04:29:54.686Z,0.88
2023-03-17T04:33:08.436Z,1.20
2023-03-17T04:36:22.462Z,1.02
2023-03-17T04:39:33.505Z,0.78
2023-03-17T04:42:44.217Z,1.30
2023-03-17T04:45:55.071Z,0.80
2023-03-17T04:49:06.007Z,1.00
2023-03-17T04:52:17.643Z,0.72
2023-03-17T04:55:28.121Z,0.85
2023-03-17T04:58:39.548Z,1.27
2023-03-17T05:01:51.411Z,1.10
2023-03-17T05:05:05.209Z,1.57
2023-03-17T05:08:15.930Z,0.98
2023-03-17T05:11:25.823Z,1.10
2023-03-17T05:14:36.448Z,0.93
2023-03-17T05:17:47.477Z,1.12
2023-03-17T05:20:58.210Z,0.82
2023-03-17T05:24:07.629Z,0.90
2023-03-17T05:27:20.737Z,0.93
2023-03-17T05:30:31.821Z,1.05
2023-03-17T05:33:40.816Z,0.78
2023-03-17T05:36:48.965Z,0.95
2023-03-17T05:39:56.953Z,0.90
2023-03-17T05:43:08.776Z,1.30
2023-03-17T05:46:20.666Z,0.93
2023-03-17T05:49:30.795Z,1.12
2023-03-17T05:52:40.114Z,0.93
2023-03-17T05:55:53.755Z,0.95
2023-03-17T05:59:04.768Z,1.25
2023-03-17T06:02:15.248Z,0.90
2023-03-17T06:05:28.809Z,1.10
2023-03-17T06:08:39.881Z,1.22
2023-03-17T06:11:50.927Z,0.85
2023-03-17T06:15:02.438Z,1.02
2023-03-17T06:18:10.938Z,1.00
2023-03-17T06:21:23.599Z,1.20
2023-03-17T06:24:34.077Z,1.30
2023-03-17T06:27:44.810Z,0.93
2023-03-17T06:30:54.673Z,1.30
2023-03-17T06:34:04.497Z,2.00
2023-03-17T06:37:15.955Z,1.07
2023-03-17T06:40:26.774Z,1.65
2023-03-17T06:43:34.927Z,1.27
2023-03-17T06:46:46.197Z,0.78
2023-03-17T06:49:57.981Z,0.82
2023-03-17T06:53:10.791Z,1.15
2023-03-17T06:56:29.570Z,1.07
2023-03-17T06:59:28.441Z,1.45
2023-03-17T07:02:38.481Z,1.00
2023-03-17T07:05:50.707Z,1.17
2023-03-17T07:09:03.228Z,1.00
2023-03-17T07:12:12.141Z,1.13
2023-03-17T07:15:25.764Z,1.07
2023-03-17T07:18:38.106Z,0.78
2023-03-17T07:21:48.161Z,1.10
2023-03-17T07:24:58.989Z,1.32
2023-03-17T07:28:09.030Z,1.00
2023-03-17T07:31:22.011Z,0.90
2023-03-17T07:34:29.493Z,1.17
2023-03-17T07:37:38.248Z,1.05
2023-03-17T07:40:48.463Z,0.93
2023-03-17T07:44:00.060Z,1.17
2023-03-17T07:47:10.313Z,0.88
2023-03-17T07:50:22.061Z,1.00
2023-03-17T07:53:33.101Z,1.35
2023-03-17T07:56:43.209Z,0.93
2023-03-17T07:59:54.113Z,1.30
2023-03-17T08:03:10.285Z,0.98
2023-03-17T08:06:20.221Z,1.47
2023-03-17T08:09:29.868Z,0.98
2023-03-17T08:12:44.003Z,0.93
2023-03-17T08:15:54.877Z,0.85
2023-03-17T08:19:04.948Z,1.45
2023-03-17T08:22:14.943Z,0.80
2023-03-17T08:25:26.960Z,0.90
2023-03-17T08:28:35.176Z,0.88
2023-03-17T08:31:46.766Z,1.25
2023-03-17T08:35:00.267Z,1.25
2023-03-17T08:41:18.911Z,1.05
2023-03-17T08:44:31.130Z,1.02
2023-03-17T08:47:42.031Z,1.10
2023-03-17T08:50:52.445Z,0.82
2023-03-17T08:54:02.999Z,1.05
2023-03-17T08:57:14.036Z,1.12
2023-03-17T09:00:29.644Z,0.82
2023-03-17T09:03:42.289Z,1.15
2023-03-17T09:07:03.341Z,0.90
2023-03-17T09:10:10.133Z,1.20
2023-03-17T09:13:21.421Z,1.00
2023-03-17T09:16:33.881Z,1.72
2023-03-17T09:19:45.194Z,1.03
2023-03-17T09:22:56.631Z,0.95
2023-03-17T09:26:07.000Z,1.62
2023-03-17T09:29:17.626Z,0.90
2023-03-17T09:32:28.024Z,1.22
2023-03-17T09:35:39.513Z,0.95
2023-03-17T09:38:48.429Z,0.82
2023-03-17T09:42:12.777Z,1.35
2023-03-17T09:45:39.842Z,0.80
2023-03-17T09:48:55.271Z,0.80
2023-03-17T09:52:08.867Z,1.15
2023-03-17T09:55:25.223Z,1.00
2023-03-17T09:58:36.072Z,0.70
2023-03-17T10:01:48.506Z,1.22
2023-03-17T10:04:59.071Z,0.80
2023-03-17T10:08:29.550Z,1.25
2023-03-17T10:11:30.958Z,1.35
2023-03-17T10:15:08.455Z,0.62
2023-03-17T10:18:17.647Z,0.95
2023-03-17T10:21:33.011Z,0.70
2023-03-17T10:24:42.816Z,0.82
2023-03-17T10:27:55.826Z,0.75
2023-03-17T10:31:09.794Z,1.17
2023-03-17T10:34:22.326Z,0.93
2023-03-17T10:37:34.291Z,0.80
2023-03-17T10:40:46.442Z,1.22
2023-03-17T10:43:56.476Z,1.20
2023-03-17T10:47:05.763Z,0.60
2023-03-17T10:50:24.185Z,1.05
2023-03-17T10:53:34.652Z,1.05
2023-03-17T10:56:46.857Z,1.05
2023-03-17T11:00:00.414Z,0.80
2023-03-17T11:03:17.780Z,1.02
2023-03-17T11:06:27.396Z,0.70
2023-03-17T11:09:38.814Z,0.90
2023-03-17T11:12:53.018Z,0.80
2023-03-17T11:16:05.101Z,1.20
2023-03-17T11:19:17.199Z,0.70
2023-03-17T11:22:31.052Z,1.00
2023-03-17T11:25:41.548Z,0.85
2023-03-17T11:28:54.223Z,0.70
2023-03-17T11:32:07.565Z,1.30
2023-03-17T11:35:54.319Z,0.95
2023-03-17T11:39:08.916Z,0.70
2023-03-17T11:42:17.978Z,0.75
2023-03-17T11:45:33.768Z,0.82
2023-03-17T11:48:48.246Z,1.25
2023-03-17T11:52:00.930Z,0.60
2023-03-17T11:55:13.226Z,0.68
2023-03-17T11:58:28.642Z,1.05
2023-03-17T12:01:45.938Z,0.90
2023-03-17T12:04:57.848Z,0.68
2023-03-17T12:08:08.876Z,1.20
2023-03-17T12:11:18.809Z,0.80
2023-03-17T12:14:31.248Z,0.75
2023-03-17T12:17:45.876Z,0.67
2023-03-17T12:20:58.405Z,0.70
2023-03-17T12:24:12.010Z,0.72
2023-03-17T12:27:24.218Z,0.65
2023-03-17T12:30:38.144Z,0.95
2023-03-17T12:33:53.197Z,0.80
2023-03-17T12:37:05.110Z,0.80
2023-03-17T12:40:21.108Z,0.90
2023-03-17T12:43:42.267Z,1.42
2023-03-17T12:47:18.175Z,1.10
2023-03-17T12:50:44.477Z,1.52
2023-03-17T12:53:52.765Z,0.60
2023-03-17T12:57:06.818Z,1.20
2023-03-17T13:00:30.046Z,0.80
2023-03-17T13:03:39.509Z,1.62
2023-03-17T13:06:49.799Z,0.95
2023-03-17T13:10:19.767Z,1.20
2023-03-17T13:13:42.736Z,1.65
2023-03-17T13:16:54.670Z,1.50
2023-03-17T13:20:21.283Z,1.35
2023-03-17T13:23:36.619Z,1.02
2023-03-17T13:27:02.645Z,2.00
2023-03-17T13:31:04.479Z,0.93
2023-03-17T13:37:33.425Z,2.07
2023-03-17T13:40:45.339Z,1.15
2023-03-17T13:44:04.358Z,1.17
2023-03-17T13:47:20.439Z,1.50
2023-03-17T13:50:38.530Z,1.70
2023-03-17T13:53:51.215Z,1.32
2023-03-17T13:56:59.960Z,1.52
2023-03-17T14:00:23.624Z,1.40
2023-03-17T14:03:36.909Z,1.27
2023-03-17T14:09:53.947Z,1.32
2023-03-17T14:13:05.607Z,1.77
2023-03-17T14:16:16.372Z,1.30
2023-03-17T14:19:30.174Z,1.00
2023-03-17T14:22:48.288Z,1.20
2023-03-17T14:25:58.208Z,1.70
2023-03-17T14:29:09.461Z,1.22
2023-03-17T14:32:20.945Z,1.52
2023-03-17T14:35:34.191Z,1.10
2023-03-17T14:38:45.403Z,1.55
2023-03-17T14:42:05.406Z,1.55
2023-03-17T14:45:24.715Z,1.57
2023-03-17T14:48:35.719Z,1.75
2023-03-17T14:51:45.356Z,1.70
2023-03-17T14:54:59.164Z,1.65
2023-03-17T14:58:14.329Z,2.02
2023-03-17T15:01:30.858Z,1.80
2023-03-17T15:04:42.831Z,1.65
2023-03-17T15:07:53.557Z,1.50
2023-03-17T15:11:07.018Z,1.40
2023-03-17T15:14:21.404Z,1.80
2023-03-17T15:17:35.562Z,1.42
2023-03-17T15:20:48.140Z,1.52
2023-03-17T15:23:58.207Z,1.70
2023-03-17T15:27:10.518Z,1.92
2023-03-17T15:30:22.678Z,1.53
2023-03-17T15:33:37.814Z,2.15
2023-03-17T15:36:48.360Z,1.42
2023-03-17T15:39:58.920Z,1.32
2023-03-17T15:43:10.245Z,2.37
2023-03-17T15:46:25.561Z,1.45
2023-03-17T15:49:35.528Z,1.50
2023-03-17T15:52:44.764Z,1.37
2023-03-17T15:55:55.754Z,1.85
2023-03-17T15:59:05.591Z,2.02
2023-03-17T16:02:33.466Z,1.87
2023-03-17T16:05:44.023Z,2.27
2023-03-17T16:08:53.670Z,2.65
2023-03-17T16:12:03.612Z,2.92
2023-03-17T16:15:23.305Z,3.00
2023-03-17T16:18:32.041Z,2.17
2023-03-17T16:21:43.007Z,2.08
2023-03-17T16:24:55.237Z,1.72
2023-03-17T16:28:06.791Z,1.90
2023-03-17T16:31:27.870Z,2.05
2023-03-17T16:34:37.605Z,1.72
2023-03-17T16:37:45.771Z,2.00
2023-03-17T16:40:55.667Z,2.30
2023-03-17T16:44:03.414Z,2.70
2023-03-17T16:47:15.707Z,2.10
2023-03-17T16:50:29.168Z,2.10
2023-03-17T16:53:41.616Z,2.40
2023-03-17T16:56:53.075Z,2.30
2023-03-17T17:00:01.504Z,2.70
2023-03-17T17:03:10.880Z,2.10
2023-03-17T17:06:20.957Z,3.35
2023-03-17T17:09:29.828Z,3.10
2023-03-17T17:12:41.251Z,3.05
2023-03-17T17:15:51.005Z,1.95
2023-03-17T17:19:00.782Z,3.22
2023-03-17T17:22:10.839Z,2.10
2023-03-17T17:25:21.520Z,2.25
2023-03-17T17:28:32.459Z,2.27
2023-03-17T17:31:43.461Z,2.50
2023-03-17T17:34:55.313Z,3.10
2023-03-17T17:38:03.571Z,2.60
2023-03-17T17:41:11.693Z,2.33
2023-03-17T17:44:23.213Z,2.80
2023-03-17T17:47:32.420Z,3.42
2023-03-17T17:50:43.335Z,3.12
2023-03-17T17:53:53.336Z,2.47
2023-03-17T17:57:03.105Z,2.83
2023-03-17T18:00:15.840Z,1.95
2023-03-17T18:03:27.078Z,2.08
2023-03-17T18:06:35.131Z,2.67
2023-03-17T18:09:46.151Z,2.62
2023-03-17T18:12:54.044Z,2.95
2023-03-17T18:16:05.561Z,2.65
2023-03-17T18:19:17.612Z,1.87
2023-03-17T18:22:29.023Z,3.20
2023-03-17T18:25:39.344Z,2.12
2023-03-17T18:28:48.377Z,1.98
2023-03-17T18:31:58.426Z,2.27
2023-03-17T18:35:12.580Z,1.92
2023-03-17T18:38:20.856Z,2.15
2023-03-17T18:41:30.566Z,2.12
2023-03-17T18:44:42.386Z,2.27
2023-03-17T18:47:52.193Z,2.80
2023-03-17T18:51:02.938Z,2.37
2023-03-17T18:54:14.580Z,2.05
2023-03-17T18:57:25.678Z,1.67
2023-03-17T19:00:37.508Z,2.15
2023-03-17T19:03:49.478Z,2.02
2023-03-17T19:07:00.821Z,2.65
2023-03-17T19:10:11.198Z,2.25
2023-03-17T19:13:20.526Z,2.08
2023-03-17T19:16:29.530Z,2.40
2023-03-17T19:19:39.604Z,2.15
2023-03-17T19:22:54.550Z,2.12
2023-03-17T19:26:06.458Z,2.25
2023-03-17T19:29:15.972Z,2.25
2023-03-17T19:32:26.741Z,2.10
2023-03-17T19:35:34.869Z,2.42
2023-03-17T19:38:47.737Z,1.70
2023-03-17T19:41:55.874Z,1.67
2023-03-17T19:45:10.296Z,1.77
2023-03-17T19:48:20.732Z,2.10
2023-03-17T19:51:28.142Z,1.80
2023-03-17T19:54:41.585Z,2.12
2023-03-17T19:57:50.760Z,1.65
2023-03-17T20:01:03.304Z,2.20
2023-03-17T20:04:14.566Z,1.92
2023-03-17T20:07:23.335Z,1.70
2023-03-17T20:10:34.242Z,1.75
2023-03-17T20:13:44.365Z,2.33
2023-03-17T20:16:54.317Z,1.80
2023-03-17T20:20:03.404Z,1.60
2023-03-17T20:23:13.416Z,1.60
2023-03-17T20:26:23.492Z,1.52
2023-03-17T20:29:30.867Z,1.40
2023-03-17T20:32:41.846Z,1.50
2023-03-17T20:35:49.214Z,1.62
2023-03-17T20:39:00.231Z,1.42
2023-03-17T20:42:11.412Z,1.47
2023-03-17T20:45:22.562Z,1.55
2023-03-17T20:48:33.698Z,1.75
2023-03-17T20:51:43.217Z,1.07
2023-03-17T20:54:55.453Z,1.80
2023-03-17T20:58:04.502Z,1.27
2023-03-17T21:01:15.043Z,1.05
2023-03-17T21:07:39.756Z,1.83
2023-03-17T21:10:50.279Z,1.15
2023-03-17T21:14:00.275Z,1.55
2023-03-17T21:17:10.647Z,1.40
2023-03-17T21:20:22.776Z,1.37
2023-03-17T21:23:33.221Z,1.40
2023-03-17T21:26:43.964Z,1.32
2023-03-17T21:29:55.544Z,1.20
2023-03-17T21:33:06.404Z,1.20
2023-03-17T21:36:15.630Z,1.02
2023-03-17T21:39:25.107Z,1.30
2023-03-17T21:42:36.241Z,1.07
2023-03-17T21:45:46.585Z,1.47
2023-03-17T21:48:57.642Z,0.90
2023-03-17T21:52:08.518Z,0.90
2023-03-17T21:55:17.403Z,1.10
2023-03-17T21:58:29.060Z,1.10
2023-03-17T22:01:38.207Z,1.40
2023-03-17T22:04:47.371Z,1.10
2023-03-17T22:07:59.873Z,0.98
2023-03-17T22:11:15.708Z,1.00
2023-03-17T22:14:29.602Z,1.10
2023-03-17T22:17:39.755Z,1.12
2023-03-17T22:20:49.650Z,1.35
2023-03-17T22:24:00.723Z,0.95
2023-03-17T22:27:11.751Z,0.98
2023-03-17T22:30:23.654Z,0.98
2023-03-17T22:33:34.710Z,1.05
2023-03-17T22:36:47.059Z,0.90
2023-03-17T22:39:59.565Z,0.87
2023-03-17T22:43:09.045Z,0.93
2023-03-17T22:46:20.158Z,1.00
2023-03-17T22:49:31.786Z,1.15
2023-03-17T22:52:39.918Z,1.35
2023-03-17T22:55:51.415Z,1.22
2023-03-17T22:59:04.058Z,0.50
2023-03-17T23:02:13.583Z,0.60
2023-03-17T23:05:22.954Z,0.78
2023-03-17T23:08:37.482Z,0.72
2023-03-17T23:11:47.436Z,0.80
2023-03-17T23:14:57.523Z,0.70
2023-03-17T23:18:09.310Z,1.07
2023-03-17T23:21:23.434Z,0.50
2023-03-17T23:24:35.002Z,0.90
2023-03-17T23:27:43.924Z,0.70
2023-03-17T23:30:53.930Z,0.65
2023-03-17T23:34:05.706Z,0.72
2023-03-17T23:37:21.116Z,1.35
2023-03-17T23:40:32.920Z,0.82
2023-03-17T23:43:42.864Z,0.80
2023-03-17T23:46:54.810Z,0.82
2023-03-17T23:50:05.589Z,0.98
2023-03-17T23:53:15.605Z,1.00
2023-03-17T23:56:26.644Z,0.85
2023-03-17T23:59:35.676Z,0.60
